Time;durP1;ratioP1;P1;durP2;ratioP2;P2;SDS_P1;SDS_P2;PMS_P1;PMS_P2;Temp;Humidity;BMP_temperature;BMP_pressure;BME280_temperature;BME280_humidity;BME280_pressure;Samples;Min_cycle;Max_cycle;Signal;HPM_P1;HPM_P2
2021/09/04 00:00:24;;;;;;;6.25;2.63;;;11.40;99.90;;;;;;5038704;28;20056;-46
2021/09/04 00:02:51;;;;;;;6.15;3.42;;;11.30;99.90;;;;;;5044786;28;20406;-48
2021/09/04 00:05:16;;;;;;;7.65;2.83;;;11.30;99.90;;;;;;5038842;28;20029;-50
2021/09/04 00:07:42;;;;;;;5.50;3.05;;;11.30;99.90;;;;;;5044696;28;20635;-48
2021/09/04 00:10:08;;;;;;;6.35;3.10;;;11.30;99.90;;;;;;5040473;28;20083;-46
2021/09/04 00:12:34;;;;;;;4.80;2.70;;;11.20;99.90;;;;;;5038376;28;20018;-47
2021/09/04 00:15:00;;;;;;;3.58;2.38;;;11.20;99.90;;;;;;5044216;28;20029;-46
2021/09/04 00:17:26;;;;;;;4.90;2.67;;;11.10;99.90;;;;;;5037628;28;20113;-49
2021/09/04 00:19:51;;;;;;;8.63;2.90;;;11.10;99.90;;;;;;5045022;28;20024;-47
2021/09/04 00:22:17;;;;;;;5.90;2.80;;;11.10;99.90;;;;;;5038605;28;20029;-50
2021/09/04 00:24:43;;;;;;;6.78;2.83;;;11.10;99.90;;;;;;5044266;28;20442;-50
2021/09/04 00:27:08;;;;;;;3.25;2.58;;;11.10;99.90;;;;;;5039385;28;20086;-48
2021/09/04 00:29:35;;;;;;;5.38;2.55;;;11.00;99.90;;;;;;5038132;28;20431;-45
2021/09/04 00:32:01;;;;;;;2.95;2.38;;;11.00;99.90;;;;;;5044600;28;20106;-46
2021/09/04 00:34:26;;;;;;;7.50;3.60;;;10.90;99.90;;;;;;5030563;28;20739;-48
2021/09/04 00:36:52;;;;;;;4.22;2.67;;;10.90;99.90;;;;;;5043777;28;20025;-45
2021/09/04 00:39:18;;;;;;;4.78;3.00;;;10.90;99.90;;;;;;5037960;28;20032;-48
2021/09/04 00:41:45;;;;;;;3.88;2.47;;;10.80;99.90;;;;;;5044032;28;20032;-49
2021/09/04 00:44:15;;;;;;;4.80;2.85;;;10.80;99.90;;;;;;5038927;28;20606;-46
2021/09/04 00:46:41;;;;;;;4.72;2.80;;;10.80;99.90;;;;;;5025140;28;20100;-46
2021/09/04 00:49:07;;;;;;;6.70;3.00;;;10.70;99.90;;;;;;5026029;28;20151;-47
2021/09/04 00:51:33;;;;;;;4.85;2.63;;;10.70;99.90;;;;;;5037565;28;20085;-47
2021/09/04 00:53:58;;;;;;;3.58;2.65;;;10.60;99.90;;;;;;5039313;28;20045;-48
2021/09/04 00:56:25;;;;;;;4.47;2.42;;;10.60;99.90;;;;;;5040921;28;20039;-51
2021/09/04 00:58:50;;;;;;;4.50;2.78;;;10.60;99.90;;;;;;5036916;28;20615;-48
2021/09/04 01:01:16;;;;;;;4.60;3.00;;;10.60;99.90;;;;;;5038356;28;20048;-51
2021/09/04 01:03:42;;;;;;;4.80;2.55;;;10.60;99.90;;;;;;5039067;28;20030;-46
2021/09/04 01:06:07;;;;;;;6.18;3.10;;;10.60;99.90;;;;;;5039104;28;20458;-46
2021/09/04 01:08:33;;;;;;;6.03;2.45;;;10.60;99.90;;;;;;5043183;28;20032;-49
2021/09/04 01:10:59;;;;;;;5.82;2.83;;;10.60;99.90;;;;;;5038271;28;20021;-48
2021/09/04 01:13:24;;;;;;;5.72;3.30;;;10.60;99.90;;;;;;5038322;28;20565;-50
2021/09/04 01:15:53;;;;;;;3.83;2.90;;;10.60;99.90;;;;;;5040297;28;20029;-46
2021/09/04 01:18:18;;;;;;;8.68;3.08;;;10.70;99.90;;;;;;5037095;28;20021;-49
2021/09/04 01:20:44;;;;;;;8.80;3.28;;;10.70;99.90;;;;;;5037893;28;20104;-46
2021/09/04 01:23:10;;;;;;;6.18;3.28;;;10.70;99.90;;;;;;5039369;28;20094;-49
2021/09/04 01:25:39;;;;;;;4.03;3.25;;;10.80;99.90;;;;;;5022399;28;20031;-47
2021/09/04 01:28:05;;;;;;;5.63;2.88;;;10.80;99.90;;;;;;5039613;28;20029;-49
2021/09/04 01:30:32;;;;;;;4.28;2.42;;;10.80;99.90;;;;;;5039376;28;20075;-47
2021/09/04 01:32:58;;;;;;;7.72;3.03;;;10.80;99.90;;;;;;5038590;28;20056;-45
2021/09/04 01:35:26;;;;;;;3.70;3.00;;;10.90;99.90;;;;;;5040941;28;20521;-47
2021/09/04 01:37:52;;;;;;;2.60;2.38;;;10.90;99.90;;;;;;5040491;28;20029;-47
2021/09/04 01:40:19;;;;;;;5.07;2.85;;;10.90;99.90;;;;;;5022867;28;20037;-46
2021/09/04 01:42:46;;;;;;;4.53;2.97;;;11.00;99.90;;;;;;5022315;28;20029;-46
2021/09/04 01:45:13;;;;;;;7.88;3.03;;;10.90;99.90;;;;;;5039862;28;20036;-46
2021/09/04 01:47:39;;;;;;;7.68;3.60;;;11.00;99.90;;;;;;5022252;28;20104;-46
2021/09/04 01:50:09;;;;;;;8.60;3.00;;;11.00;99.90;;;;;;5038410;28;20048;-50
2021/09/04 01:52:39;;;;;;;5.28;3.13;;;11.00;99.90;;;;;;5039826;28;20037;-52
2021/09/04 01:55:06;;;;;;;6.75;3.33;;;11.00;99.90;;;;;;5039243;28;20025;-50
2021/09/04 01:57:32;;;;;;;4.22;2.53;;;11.10;99.90;;;;;;5022516;28;20024;-48
2021/09/04 01:59:58;;;;;;;4.70;3.28;;;11.10;99.90;;;;;;5039547;28;20021;-48
2021/09/04 02:02:23;;;;;;;5.05;2.60;;;11.10;99.90;;;;;;5030722;28;20395;-49
2021/09/04 02:04:49;;;;;;;7.35;3.17;;;11.10;99.90;;;;;;5039903;28;20129;-47
2021/09/04 02:07:14;;;;;;;5.43;3.80;;;11.10;99.90;;;;;;5038709;28;20021;-46
2021/09/04 02:09:40;;;;;;;6.20;3.58;;;11.20;99.90;;;;;;5039773;28;20505;-51
2021/09/04 02:12:06;;;;;;;4.97;3.00;;;11.20;99.90;;;;;;5039266;28;20028;-45
2021/09/04 02:14:32;;;;;;;5.90;2.88;;;11.20;99.90;;;;;;5039496;28;20036;-49
2021/09/04 02:16:57;;;;;;;5.22;3.50;;;11.20;99.90;;;;;;5038883;28;20029;-48
2021/09/04 02:19:23;;;;;;;7.80;3.08;;;11.20;99.90;;;;;;5038544;28;20029;-47
2021/09/04 02:21:49;;;;;;;4.50;2.90;;;11.30;99.90;;;;;;5040181;28;20032;-47
2021/09/04 02:24:14;;;;;;;5.57;2.92;;;11.30;99.90;;;;;;5039786;28;20108;-51
2021/09/04 02:26:40;;;;;;;6.72;3.00;;;11.30;99.90;;;;;;5039365;28;20052;-48
2021/09/04 02:29:05;;;;;;;5.80;2.53;;;11.30;99.90;;;;;;5038293;28;20074;-47
2021/09/04 02:31:31;;;;;;;11.88;3.05;;;11.40;99.90;;;;;;5039484;28;20040;-48
2021/09/04 02:33:57;;;;;;;6.20;2.90;;;11.40;99.90;;;;;;5039771;28;20169;-52
2021/09/04 02:36:23;;;;;;;4.72;2.58;;;11.40;99.90;;;;;;5039174;28;20571;-45
2021/09/04 02:38:49;;;;;;;8.65;3.28;;;11.50;99.90;;;;;;5040137;28;20561;-49
2021/09/04 02:41:16;;;;;;;5.80;2.50;;;11.50;99.90;;;;;;5039442;28;20166;-48
2021/09/04 02:43:41;;;;;;;12.85;3.00;;;11.50;99.90;;;;;;5039043;28;20032;-47
2021/09/04 02:46:07;;;;;;;3.50;2.30;;;11.50;99.90;;;;;;5037195;28;20033;-49
2021/09/04 02:48:34;;;;;;;2.78;2.33;;;11.50;99.90;;;;;;5039256;28;20017;-51
2021/09/04 02:50:59;;;;;;;7.53;2.33;;;11.60;99.90;;;;;;5038923;28;20035;-49
2021/09/04 02:53:26;;;;;;;3.83;2.53;;;11.60;99.90;;;;;;5038790;28;20032;-47
2021/09/04 02:55:52;;;;;;;5.95;2.50;;;11.60;99.90;;;;;;5038722;28;20040;-49
2021/09/04 02:58:17;;;;;;;3.17;2.38;;;11.60;99.90;;;;;;5039206;28;20025;-50
2021/09/04 03:00:43;;;;;;;4.93;2.03;;;11.70;99.90;;;;;;5039142;28;20107;-51
2021/09/04 03:03:09;;;;;;;3.20;2.28;;;11.70;99.90;;;;;;5037152;28;20412;-46
2021/09/04 03:05:35;;;;;;;3.28;2.63;;;11.70;99.90;;;;;;5039375;28;20017;-45
2021/09/04 03:08:01;;;;;;;5.28;2.50;;;11.70;99.90;;;;;;5038233;28;20045;-48
2021/09/04 03:10:27;;;;;;;2.47;2.17;;;11.70;99.90;;;;;;5039434;28;20021;-46
2021/09/04 03:12:52;;;;;;;4.90;2.75;;;11.70;99.90;;;;;;5039034;28;20553;-46
2021/09/04 03:15:18;;;;;;;6.38;2.65;;;11.80;99.90;;;;;;5017947;28;20024;-49
2021/09/04 03:17:44;;;;;;;5.80;2.83;;;11.80;99.90;;;;;;5039990;28;20104;-46
2021/09/04 03:20:10;;;;;;;4.88;2.20;;;11.80;99.90;;;;;;5037396;28;20036;-47
2021/09/04 03:22:36;;;;;;;4.43;2.05;;;11.80;99.90;;;;;;5035851;28;20025;-48
2021/09/04 03:25:03;;;;;;;5.78;2.47;;;11.80;99.90;;;;;;5043896;28;20056;-46
2021/09/04 03:27:29;;;;;;;3.13;1.92;;;11.90;99.90;;;;;;5035980;28;20026;-48
2021/09/04 03:29:55;;;;;;;5.43;2.47;;;11.90;99.90;;;;;;5036305;28;20024;-49
2021/09/04 03:32:21;;;;;;;3.05;1.95;;;11.90;99.90;;;;;;5029353;28;20017;-50
2021/09/04 03:34:46;;;;;;;5.72;2.63;;;11.90;99.90;;;;;;5035142;28;20022;-50
2021/09/04 03:37:12;;;;;;;4.45;2.63;;;11.90;99.90;;;;;;5042642;28;20056;-47
2021/09/04 03:39:38;;;;;;;4.00;2.17;;;11.90;99.90;;;;;;5035848;28;20017;-50
2021/09/04 03:42:04;;;;;;;3.25;2.88;;;12.00;99.90;;;;;;5044449;28;20032;-49
2021/09/04 03:44:30;;;;;;;3.15;2.00;;;12.00;99.90;;;;;;5035591;28;20489;-52
2021/09/04 03:46:55;;;;;;;3.85;2.50;;;12.00;99.90;;;;;;5035749;28;20413;-52
2021/09/04 03:49:21;;;;;;;6.20;2.60;;;12.00;99.90;;;;;;5042150;28;20034;-52
2021/09/04 03:51:46;;;;;;;4.38;2.65;;;12.00;99.90;;;;;;5035519;28;20017;-46
2021/09/04 03:54:12;;;;;;;9.52;3.13;;;12.00;99.90;;;;;;5045910;28;20457;-48
2021/09/04 03:56:37;;;;;;;5.25;2.38;;;12.00;99.90;;;;;;5038696;28;20034;-50
2021/09/04 03:59:03;;;;;;;7.15;2.67;;;12.00;99.90;;;;;;5046863;28;20033;-52
2021/09/04 04:01:28;;;;;;;4.53;2.97;;;12.10;99.90;;;;;;5038768;28;20034;-49
2021/09/04 04:03:54;;;;;;;7.20;3.38;;;12.10;99.90;;;;;;5038684;28;20052;-50
2021/09/04 04:06:19;;;;;;;5.90;3.30;;;12.10;99.90;;;;;;5045498;28;20093;-49
2021/09/04 04:08:45;;;;;;;6.30;3.22;;;12.10;99.90;;;;;;5038372;28;20021;-49
2021/09/04 04:11:12;;;;;;;5.55;2.90;;;12.10;99.90;;;;;;5028217;28;20021;-48
2021/09/04 04:13:38;;;;;;;5.18;3.00;;;12.20;99.90;;;;;;5038606;28;20507;-46
2021/09/04 04:16:05;;;;;;;5.65;3.20;;;12.20;99.90;;;;;;5046463;28;20021;-49
2021/09/04 04:18:33;;;;;;;5.88;3.13;;;12.20;99.90;;;;;;5038469;28;20029;-47
2021/09/04 04:20:59;;;;;;;4.85;2.63;;;12.20;99.90;;;;;;5021329;28;20017;-49
2021/09/04 04:23:25;;;;;;;6.15;3.40;;;12.20;99.90;;;;;;5041465;28;20120;-48
2021/09/04 04:25:51;;;;;;;5.65;2.85;;;12.20;99.90;;;;;;5042287;28;20092;-49
2021/09/04 04:28:17;;;;;;;6.00;3.10;;;12.20;99.90;;;;;;5023714;28;20029;-49
2021/09/04 04:30:43;;;;;;;6.68;2.88;;;12.20;99.90;;;;;;5041742;28;20071;-51
2021/09/04 04:33:09;;;;;;;6.25;2.83;;;12.20;99.90;;;;;;5040419;28;20036;-50
2021/09/04 04:35:35;;;;;;;3.65;2.80;;;12.20;99.90;;;;;;5040456;28;20032;-49
2021/09/04 04:38:00;;;;;;;7.50;3.42;;;12.30;99.90;;;;;;5005660;28;20033;-48
2021/09/04 04:40:26;;;;;;;5.05;2.97;;;12.30;99.90;;;;;;5041931;28;20055;-49
2021/09/04 04:42:51;;;;;;;4.45;3.17;;;12.30;99.90;;;;;;5041977;28;20124;-46
2021/09/04 04:45:17;;;;;;;7.22;3.55;;;12.30;99.90;;;;;;5040966;28;20033;-49
2021/09/04 04:47:42;;;;;;;4.10;3.15;;;12.30;99.90;;;;;;5041256;28;20807;-51
2021/09/04 04:50:09;;;;;;;4.22;3.25;;;12.30;99.90;;;;;;5040199;28;20036;-50
2021/09/04 04:52:34;;;;;;;3.83;3.38;;;12.30;99.90;;;;;;5041051;28;20033;-49
2021/09/04 04:55:00;;;;;;;6.25;3.85;;;12.30;99.90;;;;;;5022524;28;20391;-47
2021/09/04 04:57:25;;;;;;;5.30;3.20;;;12.30;99.90;;;;;;5041708;28;20120;-48
2021/09/04 04:59:51;;;;;;;4.90;3.60;;;12.40;99.90;;;;;;5041293;28;20045;-52
2021/09/04 05:02:16;;;;;;;6.55;4.00;;;12.40;99.90;;;;;;5040890;28;20081;-52
2021/09/04 05:04:42;;;;;;;7.68;3.80;;;12.40;99.90;;;;;;5040650;28;20048;-45
2021/09/04 05:07:08;;;;;;;6.25;3.85;;;12.40;99.90;;;;;;5021536;28;20105;-49
2021/09/04 05:09:33;;;;;;;4.90;3.67;;;12.40;99.90;;;;;;5023680;28;20036;-53
2021/09/04 05:11:59;;;;;;;4.20;3.38;;;12.50;99.90;;;;;;5040265;28;20414;-48
2021/09/04 05:14:25;;;;;;;7.88;4.00;;;12.50;99.90;;;;;;5040927;28;20021;-48
2021/09/04 05:16:50;;;;;;;6.55;3.78;;;12.50;99.90;;;;;;5039010;28;20518;-52
2021/09/04 05:19:16;;;;;;;5.20;3.35;;;12.50;99.90;;;;;;5023424;28;20044;-48
2021/09/04 05:21:41;;;;;;;8.98;3.60;;;12.50;99.90;;;;;;5041099;28;20079;-47
2021/09/04 05:24:07;;;;;;;8.38;3.85;;;12.60;99.90;;;;;;5040502;28;20344;-46
2021/09/04 05:26:33;;;;;;;5.68;3.95;;;12.60;99.90;;;;;;5040644;28;20029;-48
2021/09/04 05:28:58;;;;;;;5.40;3.80;;;12.60;99.90;;;;;;5040527;28;20503;-48
2021/09/04 05:31:24;;;;;;;5.82;3.90;;;12.60;99.90;;;;;;5039812;28;20024;-47
2021/09/04 05:33:49;;;;;;;8.73;4.22;;;12.70;99.90;;;;;;5040543;28;20037;-46
2021/09/04 05:36:15;;;;;;;9.15;4.13;;;12.70;99.90;;;;;;5039110;28;20561;-49
2021/09/04 05:38:41;;;;;;;6.45;4.65;;;12.80;99.90;;;;;;5040479;28;20055;-50
2021/09/04 05:41:08;;;;;;;6.43;3.83;;;12.80;99.90;;;;;;5040516;28;20104;-52
2021/09/04 05:43:34;;;;;;;5.55;4.15;;;12.80;99.90;;;;;;5040366;28;20501;-53
2021/09/04 05:46:00;;;;;;;8.27;4.68;;;12.80;99.90;;;;;;5039802;28;20025;-48
2021/09/04 05:48:25;;;;;;;8.73;4.10;;;12.90;99.90;;;;;;5021903;28;20021;-50
2021/09/04 05:50:51;;;;;;;9.27;5.10;;;12.90;99.90;;;;;;5040180;28;20242;-48
2021/09/04 05:53:16;;;;;;;9.43;5.30;;;12.90;99.90;;;;;;5039157;28;20131;-52
2021/09/04 05:55:42;;;;;;;10.15;5.03;;;13.00;99.90;;;;;;5039937;28;20049;-49
2021/09/04 05:58:08;;;;;;;7.88;5.10;;;13.00;99.90;;;;;;5040122;28;20040;-50
2021/09/04 06:00:33;;;;;;;7.47;4.20;;;13.10;99.90;;;;;;5022374;28;20122;-51
2021/09/04 06:02:59;;;;;;;13.93;4.40;;;13.10;99.90;;;;;;5039328;28;20040;-50
2021/09/04 06:05:25;;;;;;;8.35;5.88;;;13.20;99.90;;;;;;5037510;28;20021;-50
2021/09/04 06:07:50;;;;;;;10.05;5.30;;;13.30;99.90;;;;;;5039959;28;20092;-51
2021/09/04 06:10:16;;;;;;;7.72;4.78;;;13.30;99.90;;;;;;5039058;28;20023;-49
2021/09/04 06:12:41;;;;;;;15.30;6.20;;;13.30;99.90;;;;;;5039928;28;20049;-47
2021/09/04 06:15:08;;;;;;;10.00;5.80;;;13.30;99.90;;;;;;5036824;28;20456;-53
2021/09/04 06:17:34;;;;;;;6.75;5.07;;;13.40;99.90;;;;;;5039086;28;20025;-50
2021/09/04 06:19:59;;;;;;;8.10;5.30;;;13.50;99.90;;;;;;5039614;28;20040;-51
2021/09/04 06:22:26;;;;;;;8.90;5.55;;;13.60;99.90;;;;;;5035957;28;20060;-48
2021/09/04 06:24:52;;;;;;;10.23;5.50;;;13.60;99.90;;;;;;5043846;28;20025;-48
2021/09/04 06:27:18;;;;;;;12.40;5.95;;;13.70;99.90;;;;;;5036547;28;20404;-49
2021/09/04 06:29:43;;;;;;;12.43;5.65;;;13.70;99.90;;;;;;5035262;28;20030;-46
2021/09/04 06:32:09;;;;;;;8.43;5.10;;;13.80;99.90;;;;;;5043001;28;20033;-51
2021/09/04 06:34:34;;;;;;;11.90;5.10;;;13.80;99.90;;;;;;5016391;28;20220;-47
2021/09/04 06:37:00;;;;;;;8.07;5.13;;;13.80;99.90;;;;;;5014490;28;20084;-50
2021/09/04 06:39:26;;;;;;;9.80;5.18;;;13.90;99.90;;;;;;5015730;28;20028;-49
2021/09/04 06:41:51;;;;;;;9.10;5.80;;;14.00;99.90;;;;;;5012578;28;20096;-51
2021/09/04 06:44:17;;;;;;;8.57;5.38;;;14.00;99.90;;;;;;4997312;28;20052;-48
2021/09/04 06:46:42;;;;;;;13.15;5.53;;;14.10;99.90;;;;;;5011817;28;20451;-51
2021/09/04 06:49:08;;;;;;;9.00;5.60;;;14.20;99.90;;;;;;5018709;28;20480;-46
2021/09/04 06:51:33;;;;;;;7.60;5.47;;;14.20;99.90;;;;;;5031486;28;20471;-47
2021/09/04 06:53:59;;;;;;;8.02;5.45;;;14.30;99.90;;;;;;5031434;28;20067;-49
2021/09/04 06:56:26;;;;;;;9.77;6.15;;;14.40;99.90;;;;;;5028285;28;20030;-55
2021/09/04 06:58:51;;;;;;;7.82;5.18;;;14.40;99.90;;;;;;5031526;28;20025;-47
2021/09/04 07:01:17;;;;;;;10.23;5.03;;;14.50;99.90;;;;;;5029038;28;20572;-54
2021/09/04 07:03:43;;;;;;;9.13;5.35;;;14.60;99.90;;;;;;5025886;28;20049;-54
2021/09/04 07:06:08;;;;;;;10.43;5.15;;;14.70;99.90;;;;;;5036455;28;20037;-48
2021/09/04 07:08:34;;;;;;;10.02;4.95;;;14.80;99.90;;;;;;5028036;28;20068;-50
2021/09/04 07:10:59;;;;;;;9.25;6.38;;;14.80;99.90;;;;;;5032264;28;20013;-48
2021/09/04 07:13:25;;;;;;;11.75;5.57;;;14.90;99.90;;;;;;5029537;28;20033;-50
2021/09/04 07:15:50;;;;;;;10.07;5.90;;;14.90;99.90;;;;;;5027267;28;20037;-50
2021/09/04 07:18:16;;;;;;;9.93;5.72;;;15.00;99.90;;;;;;5036076;28;20462;-48
2021/09/04 07:20:42;;;;;;;7.35;5.28;;;15.00;99.90;;;;;;5027789;28;20100;-49
2021/09/04 07:23:07;;;;;;;12.80;6.20;;;15.00;99.90;;;;;;5037496;28;20033;-52
2021/09/04 07:25:33;;;;;;;10.82;5.35;;;15.10;99.90;;;;;;5041826;28;20029;-47
2021/09/04 07:27:59;;;;;;;7.28;4.90;;;15.10;99.90;;;;;;5037871;28;20068;-48
2021/09/04 07:30:24;;;;;;;6.78;4.70;;;15.10;99.90;;;;;;5043044;28;20025;-49
2021/09/04 07:32:50;;;;;;;10.30;5.90;;;15.30;99.90;;;;;;5023916;28;20017;-49
2021/09/04 07:35:15;;;;;;;11.35;6.15;;;15.20;99.90;;;;;;5042126;28;20029;-48
2021/09/04 07:37:41;;;;;;;10.52;5.68;;;15.30;99.90;;;;;;5043881;28;20399;-48
2021/09/04 07:40:07;;;;;;;10.38;5.97;;;15.40;99.90;;;;;;5041231;28;20486;-52
2021/09/04 07:42:33;;;;;;;8.55;5.43;;;15.40;99.90;;;;;;5045199;28;20231;-48
2021/09/04 07:44:59;;;;;;;8.40;5.88;;;15.40;99.90;;;;;;5039156;28;20025;-49
2021/09/04 07:47:24;;;;;;;10.38;5.82;;;15.40;99.90;;;;;;5042478;28;20021;-51
2021/09/04 07:49:50;;;;;;;10.23;5.47;;;15.60;99.90;;;;;;5041518;28;20095;-48
2021/09/04 07:52:16;;;;;;;10.77;6.20;;;15.80;99.90;;;;;;5042988;28;20372;-50
2021/09/04 07:54:41;;;;;;;10.73;5.75;;;16.10;99.90;;;;;;5079813;22;20052;-50
2021/09/04 07:57:07;;;;;;;11.48;5.78;;;16.30;99.90;;;;;;5061304;28;20009;-49
2021/09/04 07:59:32;;;;;;;13.50;5.53;;;16.60;99.90;;;;;;5065959;28;20032;-52
2021/09/04 08:01:58;;;;;;;6.95;4.40;;;16.80;99.90;;;;;;5059963;28;20025;-49
2021/09/04 08:04:24;;;;;;;7.43;4.43;;;17.00;99.90;;;;;;5062292;28;20051;-49
2021/09/04 08:06:49;;;;;;;8.85;5.65;;;17.10;99.90;;;;;;5061044;28;20028;-49
2021/09/04 08:09:15;;;;;;;11.93;5.22;;;17.30;99.90;;;;;;5062313;28;20044;-47
2021/09/04 08:11:40;;;;;;;9.90;4.07;;;17.50;99.90;;;;;;5063648;28;20025;-54
2021/09/04 08:14:06;;;;;;;8.35;4.63;;;17.70;99.90;;;;;;5060757;28;20075;-50
2021/09/04 08:16:32;;;;;;;8.20;4.05;;;17.90;99.90;;;;;;5062468;28;20039;-50
2021/09/04 08:18:57;;;;;;;8.48;4.97;;;18.10;99.90;;;;;;5059432;28;20029;-54
2021/09/04 08:21:23;;;;;;;4.90;4.40;;;18.30;99.90;;;;;;5062455;28;20035;-51
2021/09/04 08:23:49;;;;;;;8.60;4.38;;;18.40;99.90;;;;;;5062172;28;20519;-50
2021/09/04 08:26:14;;;;;;;8.48;5.10;;;18.30;99.90;;;;;;5061275;28;20020;-52
2021/09/04 08:28:40;;;;;;;11.75;6.05;;;18.40;99.90;;;;;;5062566;28;20093;-50
2021/09/04 08:31:05;;;;;;;7.13;4.65;;;18.30;99.90;;;;;;5042318;28;20029;-51
2021/09/04 08:33:31;;;;;;;6.75;5.07;;;18.10;99.90;;;;;;5061913;28;20028;-51
2021/09/04 08:35:56;;;;;;;7.68;4.15;;;17.90;99.90;;;;;;5059634;28;20043;-51
2021/09/04 08:38:22;;;;;;;7.15;4.22;;;17.90;99.90;;;;;;5061645;28;20075;-50
2021/09/04 08:40:49;;;;;;;6.75;4.30;;;17.80;99.90;;;;;;5044149;28;20027;-49
2021/09/04 08:43:15;;;;;;;8.43;5.10;;;17.50;99.90;;;;;;5061187;28;20024;-51
2021/09/04 08:45:41;;;;;;;7.65;4.93;;;17.40;99.90;;;;;;5061322;28;20488;-49
2021/09/04 08:48:09;;;;;;;8.18;4.60;;;17.30;99.90;;;;;;5038728;28;20025;-50
2021/09/04 08:50:36;;;;;;;7.53;4.07;;;17.20;99.90;;;;;;5035446;28;20036;-49
2021/09/04 08:53:02;;;;;;;6.72;4.82;;;17.10;99.90;;;;;;5039728;28;20586;-48
2021/09/04 08:55:28;;;;;;;9.55;4.85;;;17.10;99.90;;;;;;5034435;28;20527;-49
2021/09/04 08:57:55;;;;;;;7.68;4.65;;;17.00;99.90;;;;;;5034683;28;20439;-50
2021/09/04 09:00:31;;;;;;;9.00;5.25;;;17.00;99.90;;;;;;5033900;28;20390;-51
2021/09/04 09:02:58;;;;;;;6.82;4.70;;;17.00;99.90;;;;;;5049935;28;20025;-49
2021/09/04 09:05:24;;;;;;;8.75;4.65;;;17.00;99.90;;;;;;5033219;28;20107;-50
2021/09/04 09:07:49;;;;;;;8.70;5.05;;;17.00;99.90;;;;;;5049457;28;20439;-50
2021/09/04 09:10:21;;;;;;;8.98;4.90;;;17.10;99.90;;;;;;5057117;28;20025;-50
2021/09/04 09:12:47;;;;;;;8.18;4.07;;;17.20;99.90;;;;;;5054290;28;20104;-51
2021/09/04 09:15:23;;;;;;;7.47;4.47;;;17.40;99.90;;;;;;5051301;28;20029;-50
2021/09/04 09:18:09;;;;;;;10.18;5.15;;;17.40;99.90;;;;;;5055994;28;20100;-49
2021/09/04 09:20:36;;;;;;;9.63;4.57;;;17.50;99.90;;;;;;5048358;28;20017;-48
2021/09/04 09:23:11;;;;;;;10.77;5.13;;;17.40;99.90;;;;;;5058157;28;20059;-49
2021/09/04 09:25:38;;;;;;;6.73;4.27;;;17.40;99.90;;;;;;5044340;28;20048;-51
2021/09/04 09:28:06;;;;;;;9.23;5.10;;;17.40;99.90;;;;;;5058711;28;20013;-51
2021/09/04 09:30:39;;;;;;;7.50;4.60;;;17.50;99.90;;;;;;5060725;28;20021;-51
2021/09/04 09:33:05;;;;;;;9.95;5.00;;;17.60;99.90;;;;;;5058439;28;20543;-51
2021/09/04 09:35:39;;;;;;;7.25;4.70;;;17.60;99.90;;;;;;5060701;28;20056;-53
2021/09/04 09:38:06;;;;;;;8.23;4.65;;;17.60;99.90;;;;;;5059692;28;20056;-52
2021/09/04 09:40:33;;;;;;;7.68;3.97;;;17.50;99.90;;;;;;5060454;28;20028;-51
2021/09/04 09:43:00;;;;;;;11.10;4.78;;;17.50;99.90;;;;;;5060128;28;20132;-48
2021/09/04 09:45:39;;;;;;;9.20;5.07;;;17.60;99.90;;;;;;5041905;28;20046;-50
2021/09/04 09:48:05;;;;;;;15.25;5.25;;;17.50;99.90;;;;;;5058367;28;20741;-50
2021/09/04 09:50:33;;;;;;;7.90;4.85;;;17.30;99.90;;;;;;5059525;28;20028;-51
2021/09/04 09:53:00;;;;;;;9.43;5.45;;;17.30;99.90;;;;;;5059246;28;20103;-49
2021/09/04 09:55:27;;;;;;;6.07;4.47;;;17.20;99.90;;;;;;5060050;28;20048;-52
2021/09/04 09:57:55;;;;;;;6.47;4.47;;;17.30;99.90;;;;;;5060281;28;20025;-50
2021/09/04 10:00:22;;;;;;;7.60;3.85;;;17.30;99.90;;;;;;5049857;28;20498;-54
2021/09/04 10:02:48;;;;;;;7.32;4.72;;;17.40;99.90;;;;;;5054333;28;20491;-51
2021/09/04 10:05:15;;;;;;;5.80;4.72;;;17.50;99.90;;;;;;5048083;28;20017;-51
2021/09/04 10:07:41;;;;;;;5.65;4.18;;;17.40;99.90;;;;;;5047844;28;20021;-51
2021/09/04 10:10:07;;;;;;;6.93;4.47;;;17.40;99.90;;;;;;5029953;28;20013;-50
2021/09/04 10:12:33;;;;;;;5.53;3.78;;;17.50;99.90;;;;;;5051366;28;20091;-51
2021/09/04 10:14:58;;;;;;;8.20;4.88;;;17.70;99.90;;;;;;5047240;28;20246;-53
2021/09/04 10:17:25;;;;;;;9.45;4.45;;;17.80;99.90;;;;;;5047565;28;20028;-52
2021/09/04 10:19:52;;;;;;;11.60;4.30;;;17.90;99.90;;;;;;5032714;28;20044;-51
2021/09/04 10:22:18;;;;;;;7.95;3.88;;;18.00;99.90;;;;;;5032932;28;20032;-50
2021/09/04 10:24:52;;;;;;;7.85;3.42;;;18.10;99.90;;;;;;5047989;28;20021;-51
2021/09/04 10:27:35;;;;;;;5.55;3.97;;;18.00;99.90;;;;;;5055265;28;20107;-50
2021/09/04 10:30:28;;;;;;;6.18;3.58;;;18.10;99.90;;;;;;5049105;28;20013;-49
2021/09/04 10:33:07;;;;;;;6.10;3.40;;;18.20;99.90;;;;;;5044700;28;20018;-51
2021/09/04 10:35:40;;;;;;;5.40;3.63;;;18.10;99.90;;;;;;5044445;28;20485;-50
2021/09/04 10:38:30;;;;;;;7.93;3.28;;;18.20;99.90;;;;;;5053311;28;20013;-51
2021/09/04 10:41:21;;;;;;;4.80;2.47;;;18.30;99.90;;;;;;5046146;28;20037;-51
2021/09/04 10:43:57;;;;;;;6.47;3.55;;;18.60;99.90;;;;;;5059948;28;20111;-52
2021/09/04 10:46:24;;;;;;;7.88;2.72;;;18.70;99.90;;;;;;5051057;28;20047;-52
2021/09/04 10:48:59;;;;;;;5.22;3.20;;;18.80;99.90;;;;;;5041271;28;20029;-52
2021/09/04 10:51:44;;;;;;;4.82;2.70;;;18.80;99.90;;;;;;5054010;28;20025;-52
2021/09/04 10:54:09;;;;;;;5.47;2.80;;;18.70;99.90;;;;;;5060121;28;20043;-51
2021/09/04 10:56:38;;;;;;;4.75;2.67;;;18.80;99.90;;;;;;5054703;28;20029;-52
2021/09/04 10:59:04;;;;;;;7.15;3.78;;;18.60;99.90;;;;;;5060655;28;20032;-51
2021/09/04 11:01:32;;;;;;;7.28;3.35;;;18.70;99.90;;;;;;5038787;28;20032;-52
2021/09/04 11:03:58;;;;;;;3.95;2.60;;;18.90;99.90;;;;;;5058246;28;20106;-52
2021/09/04 11:06:25;;;;;;;4.63;2.88;;;19.00;99.90;;;;;;5063004;28;20479;-54
2021/09/04 11:08:53;;;;;;;5.47;3.25;;;19.10;99.90;;;;;;5054469;28;20021;-51
2021/09/04 11:11:29;;;;;;;4.22;2.50;;;18.90;99.90;;;;;;5064182;28;20028;-52
2021/09/04 11:14:00;;;;;;;6.10;2.47;;;18.90;99.90;;;;;;5059190;28;20021;-51
2021/09/04 11:16:31;;;;;;;5.18;2.65;;;18.80;99.90;;;;;;5063821;28;20028;-51
2021/09/04 11:19:13;;;;;;;4.68;2.78;;;18.80;99.90;;;;;;5060154;28;20028;-51
2021/09/04 11:21:54;;;;;;;6.13;2.92;;;18.80;99.90;;;;;;5061114;28;20071;-51
2021/09/04 11:24:24;;;;;;;3.53;2.97;;;18.60;99.90;;;;;;5060302;28;20458;-52
2021/09/04 11:26:59;;;;;;;5.63;3.47;;;18.50;99.90;;;;;;5062629;28;20025;-52
2021/09/04 11:29:26;;;;;;;6.05;2.78;;;18.70;99.90;;;;;;5056980;28;20032;-52
2021/09/04 11:31:58;;;;;;;4.18;3.20;;;18.80;99.90;;;;;;5065744;28;20085;-51
2021/09/04 11:34:59;;;;;;;4.50;2.70;;;18.90;99.90;;;;;;5056109;28;20051;-52
2021/09/04 11:37:33;;;;;;;2.88;2.30;;;18.90;99.90;;;;;;5042456;28;20574;-50
2021/09/04 11:40:14;;;;;;;4.22;2.95;;;18.90;99.90;;;;;;5057381;28;20032;-48
2021/09/04 11:42:42;;;;;;;5.90;2.83;;;18.90;99.90;;;;;;5047463;28;20025;-51
2021/09/04 11:45:17;;;;;;;6.45;2.95;;;19.00;99.90;;;;;;5060995;28;20083;-50
2021/09/04 11:47:46;;;;;;;3.50;2.38;;;19.00;99.90;;;;;;5062788;28;20479;-51
2021/09/04 11:50:26;;;;;;;4.82;2.95;;;19.10;99.90;;;;;;5061866;28;20029;-50
2021/09/04 11:52:52;;;;;;;5.50;2.92;;;19.20;99.90;;;;;;5046400;28;20548;-52
2021/09/04 11:55:29;;;;;;;4.13;2.30;;;19.30;99.90;;;;;;5042717;28;20629;-52
2021/09/04 11:57:57;;;;;;;3.65;2.53;;;19.40;99.90;;;;;;5060726;28;20078;-53
2021/09/04 12:00:26;;;;;;;6.60;2.90;;;19.50;99.90;;;;;;5050526;28;20024;-51
2021/09/04 12:02:55;;;;;;;5.13;2.67;;;19.40;99.90;;;;;;5061749;28;20028;-53
2021/09/04 12:05:23;;;;;;;6.97;2.72;;;19.40;99.90;;;;;;5055106;28;20106;-50
2021/09/04 12:07:51;;;;;;;4.88;3.58;;;19.40;99.90;;;;;;5062452;28;20017;-53
2021/09/04 12:10:22;;;;;;;5.05;2.80;;;19.40;99.90;;;;;;5059897;28;20016;-50
2021/09/04 12:12:53;;;;;;;3.08;2.22;;;19.20;99.90;;;;;;5061702;28;20056;-54
2021/09/04 12:15:19;;;;;;;5.15;3.33;;;19.20;99.90;;;;;;5039530;28;20107;-49
2021/09/04 12:17:56;;;;;;;8.10;3.40;;;19.20;99.90;;;;;;5061862;28;20456;-50
2021/09/04 12:20:33;;;;;;;5.05;2.55;;;19.10;99.90;;;;;;5056864;28;20033;-50
2021/09/04 12:23:18;;;;;;;6.50;2.95;;;19.10;99.90;;;;;;5057005;28;20025;-53
2021/09/04 12:25:48;;;;;;;4.55;3.17;;;19.00;99.90;;;;;;5063451;28;20021;-49
2021/09/04 12:28:24;;;;;;;12.68;3.00;;;19.00;99.90;;;;;;5061820;28;20025;-49
2021/09/04 12:31:02;;;;;;;;;;;19.00;99.90;;;;;;5043661;28;20078;-49
2021/09/04 12:33:29;;;;;;;6.95;2.80;;;18.90;99.90;;;;;;5051805;28;19991;-49
2021/09/04 12:36:03;;;;;;;3.75;2.63;;;18.90;99.90;;;;;;5059830;28;20031;-48
2021/09/04 12:38:40;;;;;;;9.35;3.45;;;18.90;99.90;;;;;;5061336;28;20033;-49
2021/09/04 12:41:13;;;;;;;3.75;2.88;;;18.80;99.90;;;;;;5061814;28;20039;-53
2021/09/04 12:44:04;;;;;;;3.90;2.90;;;18.80;99.90;;;;;;5061403;28;20035;-50
2021/09/04 12:46:39;;;;;;;3.38;2.75;;;18.90;99.90;;;;;;5055816;28;20471;-51